Latest Weather Observations for McCluer Island

IDD60801

Issued at 2:05 pm CST Wednesday 24 September 2014 (issued every 30 minutes, with the page automatically refreshed every 10 minutes)

About weather observations | Map of weather stations | Latest weather observations for NT | Other Formats
Station Details ID: 014274 Name: MCCLUER ISLAND Lat: -11.05 Lon: 132.98 Height: 1.4 m
Data from the previous 72 hours. | See also: Recent months at McCluer Island
Date/Time
CST
Temp
°C
App
Temp
°C
Dew
Point
Rel
Hum
%
Delta-T
°C
Wind Press
QNH
hPa
Press
MSL
hPa
Rain
since 9 am
mm
Dir
 
Spd
km/h
Gust
km/h
Spd
kts
Gust
kts
24/02:00pm 28.1 31.3 23.7 77 3.0 E 13 15 7 8 1012.6 - 0.0
24/01:30pm 28.3 31.7 24.1 78 2.9 E 13 15 7 8 1013.0 - 0.0
24/01:00pm 28.3 31.9 24.3 79 2.8 E 13 17 7 9 1013.4 - 0.0
24/12:30pm 28.4 32.0 25.0 82 2.4 E 15 19 8 10 1014.0 - 0.0
24/12:00pm 28.0 31.0 24.6 82 2.4 ENE 17 19 9 10 1014.4 1014.4 0.0
24/11:30am 27.6 30.3 24.2 82 2.4 ENE 17 20 9 11 1014.7 - 0.0
24/11:00am 27.3 29.5 24.2 83 2.1 ENE 20 22 11 12 1014.9 - 0.0
24/10:30am 27.0 29.1 24.1 84 2.0 ENE 20 24 11 13 1015.1 - 0.0
24/10:00am 27.1 29.1 24.0 83 2.1 ENE 20 24 11 13 1015.1 - 0.0
24/09:30am 26.8 28.6 23.3 81 2.4 ENE 19 20 10 11 1014.8 - 0.0
24/09:00am 26.5 28.5 23.6 84 2.0 ENE 19 20 10 11 1014.8 1014.8 0.0
24/08:30am 26.3 28.5 24.0 87 1.6 ENE 19 22 10 12 1014.8 - 0.0
24/08:00am 26.2 28.9 24.2 89 1.4 NE 17 20 9 11 1014.6 - 0.0
24/07:30am 26.0 28.7 24.2 90 1.2 NE 17 20 9 11 1014.4 - 0.0
24/07:00am 25.8 28.9 24.8 94 0.7 ENE 17 20 9 11 1014.1 - 0.0
24/06:30am 25.6 29.7 24.6 94 0.7 ENE 11 15 6 8 1013.7 - 0.0
24/06:00am 25.3 29.8 24.6 96 0.5 NE 9 11 5 6 1013.3 1013.3 0.0
24/05:30am 23.9 29.5 23.6 98 0.2 CALM 0 0 0 0 1013.3 - 0.0
24/05:00am 24.2 29.9 23.7 97 0.3 CALM 0 0 0 0 1013.2 - 0.0
24/04:30am 24.1 29.8 23.8 98 0.2 CALM 0 0 0 0 1013.1 - 0.0
24/04:00am 24.3 30.0 23.8 97 0.3 CALM 0 0 0 0 1012.9 - 0.0
24/03:30am 24.5 29.1 23.1 92 0.9 W 4 6 2 3 1012.8 - 0.0
24/03:00am 25.2 29.7 24.0 93 0.8 W 7 9 4 5 1012.9 1012.9 0.0
24/02:30am 25.4 29.7 24.2 93 0.8 W 9 11 5 6 1012.8 - 0.0
24/02:00am 25.4 29.4 24.4 94 0.7 WNW 11 13 6 7 1013.0 - 0.0
24/01:30am 25.8 29.8 25.1 96 0.5 NW 13 15 7 8 1013.2 - 0.0
24/01:00am 25.7 29.2 24.8 95 0.6 NW 15 17 8 9 1013.4 - 0.0
24/12:30am 25.8 29.7 24.9 95 0.6 NW 13 15 7 8 1013.5 - 0.0
24/12:00am 25.6 29.2 24.4 93 0.8 N 13 15 7 8 1013.7 1013.7 0.0
 
Date/Time
CST
Temp
°C
App
Temp
°C
Dew
Point
Rel
Hum
%
Delta-T
°C
Wind Press
QNH
hPa
Press
MSL
hPa
Rain
since 9 am
mm
Dir
 
Spd
km/h
Gust
km/h
Spd
kts
Gust
kts
23/11:30pm 25.7 29.0 24.5 93 0.8 N 15 17 8 9 1013.8 - 0.0
23/11:00pm 25.8 29.2 24.6 93 0.8 N 15 17 8 9 1013.7 - 0.0
23/10:30pm 25.9 29.7 24.7 93 0.8 N 13 17 7 9 1013.7 - 0.0
23/10:00pm 25.8 29.5 24.6 93 0.8 N 13 15 7 8 1013.5 - 0.0
23/09:30pm 26.2 30.2 25.0 93 0.8 N 13 17 7 9 1013.4 - 0.0
23/09:00pm 26.2 29.3 24.8 92 1.0 N 17 19 9 10 1013.1 1013.1 0.0
23/08:30pm 26.3 30.0 25.1 93 0.8 N 15 17 8 9 1012.8 - 0.0
23/08:00pm 26.5 29.2 25.1 92 1.0 NNE 20 22 11 12 1012.4 - 0.0
23/07:30pm 26.6 29.4 25.0 91 1.1 NNE 19 22 10 12 1012.0 - 0.0
23/07:00pm 26.4 28.7 24.4 89 1.4 NNE 20 24 11 13 1011.8 - 0.0
23/06:30pm 26.4 28.6 24.2 88 1.5 NNE 20 22 11 12 1011.5 - 0.0
23/06:00pm 26.6 28.5 24.4 88 1.5 NNE 22 28 12 15 1011.1 1011.1 0.0
23/05:30pm 26.9 29.1 24.9 89 1.4 NNE 22 26 12 14 1011.0 - 0.0
23/05:00pm 26.9 29.4 24.4 86 1.7 ENE 19 22 10 12 1011.0 - 0.0
23/04:30pm 27.1 30.0 24.4 85 1.9 NE 17 20 9 11 1011.1 - 0.0
23/04:00pm 27.4 30.1 24.7 85 1.9 NE 19 22 10 12 1011.4 - 0.0
23/03:30pm 27.0 29.0 23.9 83 2.1 NE 20 24 11 13 1011.6 - 0.0
23/03:00pm 27.6 30.3 24.8 85 2.0 NE 19 22 10 12 1011.9 1011.9 0.0
23/02:30pm 27.6 30.3 24.2 82 2.4 NE 17 20 9 11 1012.1 - 0.0
23/02:00pm 27.5 29.6 24.7 85 1.9 NE 22 26 12 14 1012.4 - 0.0
23/01:30pm 28.2 31.6 25.8 87 1.7 ENE 19 22 10 12 1012.9 - 0.0
23/01:00pm 27.7 30.8 24.1 81 2.5 ENE 15 19 8 10 1013.5 - 0.0
23/12:30pm 27.9 31.1 24.3 81 2.5 ENE 15 17 8 9 1013.8 - 0.0
23/12:00pm 28.0 31.2 24.4 81 2.5 ENE 15 19 8 10 1014.1 1014.1 0.0
23/11:30am 28.2 31.7 24.8 82 2.4 ENE 15 17 8 9 1014.6 - 0.0
23/11:00am 28.1 32.2 23.9 78 2.9 ENE 9 13 5 7 1015.0 - 0.0
23/10:30am 27.9 32.0 23.9 79 2.8 E 9 11 5 6 1015.3 - 0.0
23/10:00am 27.9 32.0 23.9 79 2.8 E 9 11 5 6 1015.3 - 0.0
23/09:30am 27.9 32.1 24.1 80 2.6 ENE 9 11 5 6 1015.3 - 0.0
23/09:00am 27.5 33.1 23.5 79 2.7 CALM 0 0 0 0 1015.1 1015.1 0.0
23/08:30am 26.9 32.3 23.8 83 2.1 NNE 2 7 1 4 1015.0 - 0.0
23/08:00am 25.8 30.4 23.8 89 1.4 E 6 9 3 5 1014.5 - 0.0
23/07:30am 25.1 30.4 24.9 99 0.1 E 6 7 3 4 1014.3 - 0.0
23/07:00am 23.9 28.6 23.9 100 0.0 E 6 7 3 4 1014.0 - 0.0
23/06:30am 23.8 28.3 23.6 99 0.1 ESE 6 7 3 4 1013.7 - 0.0
23/06:00am 23.6 27.4 23.4 99 0.1 SE 9 9 5 5 1013.5 1013.5 0.0
23/05:30am 24.0 28.6 23.8 99 0.1 SE 6 7 3 4 1013.1 - 0.0
23/05:00am 23.5 27.9 23.5 100 0.0 SSE 6 7 3 4 1012.9 - 0.0
23/04:30am 23.4 27.2 23.4 100 0.0 S 9 11 5 6 1012.7 - 0.0
23/04:00am 24.0 27.7 23.3 96 0.5 S 9 13 5 7 1012.4 - 0.0
23/03:30am 24.4 30.5 24.4 100 0.0 CALM 0 0 0 0 1012.4 - 0.0
23/03:00am 24.3 29.4 24.0 98 0.2 S 4 6 2 3 1012.6 1012.6 0.0
23/02:30am 24.5 29.9 23.3 93 0.8 CALM 0 0 0 0 1012.8 - 0.0
23/02:00am 25.3 30.1 24.1 93 0.8 N 6 7 3 4 1012.8 - 0.0
23/01:30am 25.6 30.5 24.4 93 0.8 N 6 9 3 5 1013.0 - 0.0
23/01:00am 25.6 29.2 24.4 93 0.8 NNE 13 17 7 9 1012.8 - 0.0
23/12:30am 25.9 29.1 24.9 94 0.7 NNE 17 20 9 11 1012.6 - 0.0
23/12:00am 25.6 28.5 24.4 93 0.8 NNE 17 22 9 12 1012.8 1012.8 0.0
 
Date/Time
CST
Temp
°C
App
Temp
°C
Dew
Point
Rel
Hum
%
Delta-T
°C
Wind Press
QNH
hPa
Press
MSL
hPa
Rain
since 9 am
mm
Dir
 
Spd
km/h
Gust
km/h
Spd
kts
Gust
kts
22/11:30pm 26.0 28.3 25.0 94 0.7 N 22 26 12 14 1012.5 - 0.0
22/11:00pm 25.9 28.6 24.7 93 0.8 N 19 22 10 12 1012.8 - 0.0
22/10:30pm 25.9 29.1 24.3 91 1.1 N 15 19 8 10 1013.1 - 0.0
22/10:00pm 25.9 28.7 24.3 91 1.1 N 17 20 9 11 1013.1 - 0.0
22/09:30pm 26.1 28.6 24.5 91 1.1 N 19 20 10 11 1012.9 - 0.0
22/09:00pm 26.4 29.0 24.6 90 1.2 N 19 20 10 11 1012.7 1012.7 0.0
22/08:30pm 26.2 28.9 24.2 89 1.4 N 17 19 9 10 1012.5 - 0.0
22/08:00pm 26.1 28.1 24.0 88 1.4 NNE 20 24 11 13 1012.2 - 0.0
22/07:30pm 26.0 28.6 23.9 88 1.4 N 17 26 9 14 1012.2 - 0.0
22/07:00pm 26.5 27.8 24.7 90 1.2 NNE 26 30 14 16 1011.5 - 0.0
22/06:30pm 26.3 27.5 24.5 90 1.2 NE 26 30 14 16 1011.2 - 0.0
22/06:00pm 26.6 28.4 24.8 90 1.3 NE 24 28 13 15 1011.0 1011.0 0.0
22/05:30pm 26.5 27.8 24.0 86 1.7 NE 24 26 13 14 1010.9 - 0.0
22/05:00pm 26.9 28.9 24.5 87 1.7 ENE 22 26 12 14 1010.9 - 0.0
22/04:30pm 27.0 28.5 24.3 85 1.9 ENE 24 26 13 14 1010.9 - 0.0
22/04:00pm 27.1 28.0 24.0 83 2.1 E 26 30 14 16 1010.9 - 0.0
22/03:30pm 27.4 28.5 23.6 80 2.6 E 24 28 13 15 1011.2 - 0.0
22/03:00pm 27.7 28.7 23.5 78 2.9 E 24 30 13 16 1011.5 1011.5 0.0
22/02:30pm 28.3 29.6 23.4 75 3.4 E 22 26 12 14 1011.8 - 0.0
22/02:00pm 28.2 28.6 22.4 71 3.9 ESE 24 30 13 16 1012.1 - 0.0
22/01:30pm 28.8 29.2 22.5 68 4.3 ESE 24 32 13 17 1012.2 - 0.0
22/01:00pm 29.0 29.7 23.0 70 4.1 ESE 24 33 13 18 1012.8 - 0.0
22/12:30pm 29.2 30.6 22.9 69 4.3 E 20 32 11 17 1013.4 - 0.0
22/12:00pm 28.3 29.7 22.8 72 3.7 ESE 20 28 11 15 1013.8 1013.8 0.0
22/11:30am 28.2 29.3 23.1 74 3.5 ESE 22 28 12 15 1014.5 - 0.0
22/11:00am 28.1 29.5 22.8 73 3.6 E 20 26 11 14 1015.0 - 0.0
22/10:30am 28.6 30.4 23.5 74 3.5 ESE 20 24 11 13 1015.3 - 0.0
22/10:00am 27.6 28.7 22.3 73 3.6 E 20 24 11 13 1015.6 - 0.0
22/09:30am 27.5 29.1 22.9 76 3.1 ESE 19 24 10 13 1015.7 - 0.0
22/09:00am 27.1 28.4 22.7 77 3.0 ESE 20 24 11 13 1015.8 1015.8 0.0
22/08:30am 26.9 28.5 22.9 79 2.7 ESE 19 22 10 12 1015.6 - 0.0
22/08:00am 26.6 28.9 23.5 83 2.1 E 17 20 9 11 1015.2 - 0.0
22/07:30am 25.0 27.4 22.9 88 1.4 E 15 19 8 10 1014.7 - 0.0
22/07:00am 23.9 27.1 23.0 95 0.6 ESE 11 15 6 8 1014.4 - 0.0
22/06:30am 23.3 26.2 22.5 95 0.5 ESE 11 15 6 8 1013.8 - 0.0
22/06:00am 23.5 26.5 22.7 95 0.5 ESE 11 13 6 7 1013.4 1013.4 0.0
22/05:30am 24.0 26.9 22.4 91 1.1 ESE 11 13 6 7 1013.0 - 0.0
22/05:00am 25.2 28.6 23.3 89 1.3 E 11 17 6 9 1012.7 - 0.0
22/04:30am 25.3 28.9 23.7 91 1.1 E 11 13 6 7 1012.5 - 0.0
22/04:00am 25.4 28.7 23.8 91 1.1 E 13 19 7 10 1012.4 - 0.0
22/03:30am 25.5 28.2 24.1 92 1.0 E 17 20 9 11 1012.5 - 0.0
22/03:00am 25.6 28.0 24.2 92 1.0 E 19 20 10 11 1012.5 1012.5 0.0
22/02:30am 25.6 27.5 24.4 93 0.8 ENE 22 24 12 13 1012.3 - 0.0
22/02:00am 25.8 27.8 24.6 93 0.8 ENE 22 24 12 13 1012.4 - 0.0
22/01:30am 26.0 28.2 24.8 93 0.8 ENE 22 24 12 13 1012.6 - 0.0
22/01:00am 26.0 28.3 24.4 91 1.1 E 20 24 11 13 1012.9 - 0.0
22/12:30am 26.0 28.0 24.0 89 1.4 ENE 20 22 11 12 1013.3 - 0.0
22/12:00am 26.2 29.2 24.6 91 1.1 ENE 17 20 9 11 1013.8 1013.8 0.0
 
Date/Time
CST
Temp
°C
App
Temp
°C
Dew
Point
Rel
Hum
%
Delta-T
°C
Wind Press
QNH
hPa
Press
MSL
hPa
Rain
since 9 am
mm
Dir
 
Spd
km/h
Gust
km/h
Spd
kts
Gust
kts
21/11:30pm 26.1 28.4 24.1 89 1.4 NE 19 20 10 11 1013.9 - 0.0
21/11:00pm 26.1 28.4 24.1 89 1.4 NE 19 20 10 11 1013.9 - 0.0
21/10:30pm 26.3 28.6 24.5 90 1.2 NE 20 24 11 13 1013.8 - 0.0
21/10:00pm 26.3 27.7 24.2 88 1.4 NNE 24 28 13 15 1013.8 - 0.0
21/09:30pm 26.4 28.2 24.2 88 1.5 NNE 22 30 12 16 1014.0 - 0.0
21/09:00pm 26.5 26.6 24.5 89 1.4 NNE 32 35 17 19 1013.2 1013.2 0.0
21/08:30pm 26.6 27.1 24.6 89 1.4 NNE 30 32 16 17 1013.1 - 0.0
21/08:00pm 26.6 27.2 24.1 86 1.7 NE 28 32 15 17 1013.1 - 0.0
21/07:30pm 26.6 27.9 24.1 86 1.7 NE 24 28 13 15 1013.2 - 0.0
21/07:00pm 26.5 28.5 24.0 86 1.7 NE 20 24 11 13 1012.8 - 0.0
21/06:30pm 26.5 29.3 23.6 84 2.0 ENE 15 19 8 10 1012.6 - 0.0
21/06:00pm 26.8 29.5 23.5 82 2.3 ENE 15 17 8 9 1012.3 1012.3 0.0
21/05:30pm 26.9 29.8 23.2 80 2.5 ENE 13 17 7 9 1011.9 - 0.0
21/05:00pm 26.9 30.0 23.6 82 2.3 ENE 13 17 7 9 1011.8 - 0.0
21/04:30pm 27.3 30.9 24.4 84 2.0 ENE 13 15 7 8 1011.6 - 0.0
21/04:00pm 27.3 30.3 24.0 82 2.3 ENE 15 17 8 9 1011.4 - 0.0
21/03:30pm 28.0 32.0 24.4 81 2.5 E 11 15 6 8 1011.5 - 0.0
21/03:00pm 27.7 31.4 23.3 77 3.0 E 9 13 5 7 1011.7 1011.7 0.0
21/02:30pm 28.4 32.5 24.0 77 3.0 E 9 13 5 7 1012.1 - 0.0

Other Formats:

Comma delimited format used in spreadsheet applications
http://www.bom.gov.au/fwo/IDD60801/IDD60801.94135.axf

JavaScript Object Notation format (JSON) in row-major order
http://www.bom.gov.au/fwo/IDD60801/IDD60801.94135.json